sensor_id;sensor_type;location;lat;lon;timestamp;pressure;altitude;pressure_sealevel;temperature;humidity
16777;BME280;8505;49.456;8.164;2022-07-22T00:00:34;-20531.84;;;20.00;100.00
16777;BME280;8505;49.456;8.164;2022-07-22T00:03:04;-20532.44;;;20.02;100.00
16777;BME280;8505;49.456;8.164;2022-07-22T00:05:32;-20531.53;;;19.99;100.00
16777;BME280;8505;49.456;8.164;2022-07-22T00:07:59;-20523.94;;;19.73;100.00
16777;BME280;8505;49.456;8.164;2022-07-22T00:10:27;-20526.38;;;19.81;100.00
16777;BME280;8505;49.456;8.164;2022-07-22T00:12:55;-20528.50;;;19.89;100.00
16777;BME280;8505;49.456;8.164;2022-07-22T00:15:22;-20527.13;;;19.84;100.00
16777;BME280;8505;49.456;8.164;2022-07-22T00:17:50;-20529.09;;;19.91;100.00
16777;BME280;8505;49.456;8.164;2022-07-22T00:20:19;-20535.19;;;20.11;100.00
16777;BME280;8505;49.456;8.164;2022-07-22T00:22:47;-20532.00;;;20.00;100.00
16777;BME280;8505;49.456;8.164;2022-07-22T00:25:15;-20520.59;;;19.62;100.00
16777;BME280;8505;49.456;8.164;2022-07-22T00:27:44;-20523.03;;;19.70;100.00
16777;BME280;8505;49.456;8.164;2022-07-22T00:30:12;-20524.84;;;19.76;100.00
16777;BME280;8505;49.456;8.164;2022-07-22T00:32:40;-20525.91;;;19.80;100.00
16777;BME280;8505;49.456;8.164;2022-07-22T00:35:08;-20529.25;;;19.91;100.00
16777;BME280;8505;49.456;8.164;2022-07-22T00:37:37;-20526.69;;;19.82;100.00
16777;BME280;8505;49.456;8.164;2022-07-22T00:40:05;-20527.88;;;19.87;100.00
16777;BME280;8505;49.456;8.164;2022-07-22T00:42:33;-20528.81;;;19.90;100.00
16777;BME280;8505;49.456;8.164;2022-07-22T00:45:02;-20527.88;;;19.87;100.00
16777;BME280;8505;49.456;8.164;2022-07-22T00:47:30;-20530.94;;;19.97;100.00
16777;BME280;8505;49.456;8.164;2022-07-22T00:49:58;-20524.84;;;19.76;100.00
16777;BME280;8505;49.456;8.164;2022-07-22T00:52:26;-20517.28;;;19.51;100.00
16777;BME280;8505;49.456;8.164;2022-07-22T00:54:56;-20516.34;;;19.48;100.00
16777;BME280;8505;49.456;8.164;2022-07-22T00:57:23;-20517.28;;;19.51;100.00
16777;BME280;8505;49.456;8.164;2022-07-22T00:59:51;-20514.38;;;19.41;100.00
16777;BME280;8505;49.456;8.164;2022-07-22T01:02:19;-20510.56;;;19.29;100.00
16777;BME280;8505;49.456;8.164;2022-07-22T01:04:47;-20498.44;;;18.88;100.00
16777;BME280;8505;49.456;8.164;2022-07-22T01:07:15;-20493.72;;;18.72;100.00
16777;BME280;8505;49.456;8.164;2022-07-22T01:09:43;-20489.91;;;18.60;100.00
16777;BME280;8505;49.456;8.164;2022-07-22T01:12:12;-20486.13;;;18.47;100.00
16777;BME280;8505;49.456;8.164;2022-07-22T01:14:40;-20485.06;;;18.44;100.00
16777;BME280;8505;49.456;8.164;2022-07-22T01:17:08;-20482.00;;;18.33;100.00
16777;BME280;8505;49.456;8.164;2022-07-22T01:19:38;-20484.44;;;18.42;100.00
16777;BME280;8505;49.456;8.164;2022-07-22T01:22:07;-20476.22;;;18.14;100.00
16777;BME280;8505;49.456;8.164;2022-07-22T01:24:35;-20480.03;;;18.27;100.00
16777;BME280;8505;49.456;8.164;2022-07-22T01:27:03;-20472.28;;;18.01;100.00
16777;BME280;8505;49.456;8.164;2022-07-22T01:29:30;-20472.13;;;18.00;100.00
16777;BME280;8505;49.456;8.164;2022-07-22T01:31:58;-20473.19;;;18.04;100.00
16777;BME280;8505;49.456;8.164;2022-07-22T01:34:26;-20472.28;;;18.01;100.00
16777;BME280;8505;49.456;8.164;2022-07-22T01:36:53;-20472.88;;;18.03;100.00
16777;BME280;8505;49.456;8.164;2022-07-22T01:39:22;-20474.72;;;18.09;100.00
16777;BME280;8505;49.456;8.164;2022-07-22T01:41:50;-20473.19;;;18.04;100.00
16777;BME280;8505;49.456;8.164;2022-07-22T01:44:18;-20472.59;;;18.02;100.00
16777;BME280;8505;49.456;8.164;2022-07-22T01:46:45;-20469.84;;;17.93;100.00
16777;BME280;8505;49.456;8.164;2022-07-22T01:49:13;-20472.88;;;18.03;100.00
16777;BME280;8505;49.456;8.164;2022-07-22T01:51:41;-20472.59;;;18.02;100.00
16777;BME280;8505;49.456;8.164;2022-07-22T01:54:09;-20467.72;;;17.86;100.00
16777;BME280;8505;49.456;8.164;2022-07-22T01:56:38;-20465.91;;;17.80;100.00
16777;BME280;8505;49.456;8.164;2022-07-22T01:59:05;-20465.91;;;17.80;100.00
16777;BME280;8505;49.456;8.164;2022-07-22T02:01:33;-20463.31;;;17.71;100.00
16777;BME280;8505;49.456;8.164;2022-07-22T02:04:01;-20463.16;;;17.71;100.00
16777;BME280;8505;49.456;8.164;2022-07-22T02:06:29;-20459.19;;;17.57;100.00
16777;BME280;8505;49.456;8.164;2022-07-22T02:08:57;-20456.78;;;17.49;100.00
16777;BME280;8505;49.456;8.164;2022-07-22T02:11:26;-20458.91;;;17.56;100.00
16777;BME280;8505;49.456;8.164;2022-07-22T02:13:55;-20459.81;;;17.59;100.00
16777;BME280;8505;49.456;8.164;2022-07-22T02:16:23;-20456.16;;;17.47;100.00
16777;BME280;8505;49.456;8.164;2022-07-22T02:18:51;-20457.69;;;17.52;100.00
16777;BME280;8505;49.456;8.164;2022-07-22T02:21:20;-20454.78;;;17.43;100.00
16777;BME280;8505;49.456;8.164;2022-07-22T02:23:48;-20455.69;;;17.46;100.00
16777;BME280;8505;49.456;8.164;2022-07-22T02:26:16;-20458.28;;;17.54;100.00
16777;BME280;8505;49.456;8.164;2022-07-22T02:28:43;-20458.75;;;17.56;100.00
16777;BME280;8505;49.456;8.164;2022-07-22T02:31:12;-20462.56;;;17.69;100.00
16777;BME280;8505;49.456;8.164;2022-07-22T02:33:40;-20460.72;;;17.62;100.00
16777;BME280;8505;49.456;8.164;2022-07-22T02:36:08;-20458.75;;;17.56;100.00
16777;BME280;8505;49.456;8.164;2022-07-22T02:38:36;-20455.69;;;17.46;100.00
16777;BME280;8505;49.456;8.164;2022-07-22T02:41:04;-20452.19;;;17.34;100.00
16777;BME280;8505;49.456;8.164;2022-07-22T02:43:31;-20450.06;;;17.27;100.00
16777;BME280;8505;49.456;8.164;2022-07-22T02:45:59;-20447.50;;;17.18;100.00
16777;BME280;8505;49.456;8.164;2022-07-22T02:48:28;-20449.16;;;17.24;100.00
16777;BME280;8505;49.456;8.164;2022-07-22T02:50:56;-20449.47;;;17.25;100.00
16777;BME280;8505;49.456;8.164;2022-07-22T02:53:23;-20450.38;;;17.28;100.00
16777;BME280;8505;49.456;8.164;2022-07-22T02:55:51;-20450.69;;;17.29;100.00
16777;BME280;8505;49.456;8.164;2022-07-22T02:58:19;-20446.72;;;17.16;100.00
16777;BME280;8505;49.456;8.164;2022-07-22T03:00:46;-20450.06;;;17.27;100.00
16777;BME280;8505;49.456;8.164;2022-07-22T03:03:14;-20448.56;;;17.22;100.00
16777;BME280;8505;49.456;8.164;2022-07-22T03:05:43;-20451.00;;;17.30;100.00
16777;BME280;8505;49.456;8.164;2022-07-22T03:08:11;-20451.59;;;17.32;100.00
16777;BME280;8505;49.456;8.164;2022-07-22T03:10:38;-20449.47;;;17.25;100.00
16777;BME280;8505;49.456;8.164;2022-07-22T03:13:07;-20450.06;;;17.27;100.00
16777;BME280;8505;49.456;8.164;2022-07-22T03:15:34;-20447.03;;;17.17;100.00
16777;BME280;8505;49.456;8.164;2022-07-22T03:18:02;-20446.28;;;17.14;100.00
16777;BME280;8505;49.456;8.164;2022-07-22T03:20:30;-20445.19;;;17.11;100.00
16777;BME280;8505;49.456;8.164;2022-07-22T03:23:01;-20443.69;;;17.06;100.00
16777;BME280;8505;49.456;8.164;2022-07-22T03:25:28;-20444.91;;;17.10;100.00
16777;BME280;8505;49.456;8.164;2022-07-22T03:27:57;-20440.63;;;16.96;100.00
16777;BME280;8505;49.456;8.164;2022-07-22T03:30:25;-20439.13;;;16.90;100.00
16777;BME280;8505;49.456;8.164;2022-07-22T03:32:53;-20439.41;;;16.91;100.00
16777;BME280;8505;49.456;8.164;2022-07-22T03:35:20;-20440.94;;;16.97;100.00
16777;BME280;8505;49.456;8.164;2022-07-22T03:37:48;-20442.16;;;17.01;100.00
16777;BME280;8505;49.456;8.164;2022-07-22T03:40:17;-20442.47;;;17.02;100.00
16777;BME280;8505;49.456;8.164;2022-07-22T03:42:45;-20438.97;;;16.90;100.00
16777;BME280;8505;49.456;8.164;2022-07-22T03:45:13;-20440.34;;;16.95;100.00
16777;BME280;8505;49.456;8.164;2022-07-22T03:47:41;-20438.81;;;16.89;100.00
16777;BME280;8505;49.456;8.164;2022-07-22T03:50:09;-20436.69;;;16.82;100.00
16777;BME280;8505;49.456;8.164;2022-07-22T03:52:37;-20440.50;;;16.95;100.00
16777;BME280;8505;49.456;8.164;2022-07-22T03:55:06;-20441.25;;;16.98;100.00
16777;BME280;8505;49.456;8.164;2022-07-22T03:57:35;-20436.84;;;16.83;100.00
16777;BME280;8505;49.456;8.164;2022-07-22T04:00:04;-20436.38;;;16.81;100.00
16777;BME280;8505;49.456;8.164;2022-07-22T04:02:32;-20434.84;;;16.76;100.00
16777;BME280;8505;49.456;8.164;2022-07-22T04:04:59;-20434.25;;;16.74;100.00
16777;BME280;8505;49.456;8.164;2022-07-22T04:07:27;-20435.47;;;16.78;100.00
16777;BME280;8505;49.456;8.164;2022-07-22T04:09:55;-20437.28;;;16.84;100.00
16777;BME280;8505;49.456;8.164;2022-07-22T04:12:33;-20439.41;;;16.91;100.00
16777;BME280;8505;49.456;8.164;2022-07-22T04:15:02;-20442.31;;;17.01;100.00
16777;BME280;8505;49.456;8.164;2022-07-22T04:17:30;-20446.13;;;17.14;100.00
16777;BME280;8505;49.456;8.164;2022-07-22T04:19:58;-20444.00;;;17.07;100.00
16777;BME280;8505;49.456;8.164;2022-07-22T04:22:27;-20444.59;;;17.09;100.00
16777;BME280;8505;49.456;8.164;2022-07-22T04:24:56;-20450.84;;;17.29;100.00
16777;BME280;8505;49.456;8.164;2022-07-22T04:27:23;-20449.91;;;17.26;100.00
16777;BME280;8505;49.456;8.164;2022-07-22T04:29:51;-20453.13;;;17.37;100.00
16777;BME280;8505;49.456;8.164;2022-07-22T04:32:20;-20455.56;;;17.45;100.00
16777;BME280;8505;49.456;8.164;2022-07-22T04:34:48;-20457.06;;;17.50;100.00
16777;BME280;8505;49.456;8.164;2022-07-22T04:37:16;-20460.13;;;17.60;100.00
16777;BME280;8505;49.456;8.164;2022-07-22T04:39:43;-20460.72;;;17.62;100.00
16777;BME280;8505;49.456;8.164;2022-07-22T04:42:11;-20462.84;;;17.70;100.00
16777;BME280;8505;49.456;8.164;2022-07-22T04:44:39;-20462.84;;;17.70;100.00
16777;BME280;8505;49.456;8.164;2022-07-22T04:47:06;-20468.63;;;17.89;100.00
16777;BME280;8505;49.456;8.164;2022-07-22T04:49:36;-20470.16;;;17.94;100.00
16777;BME280;8505;49.456;8.164;2022-07-22T04:52:04;-20471.53;;;17.98;100.00
16777;BME280;8505;49.456;8.164;2022-07-22T04:54:35;-20472.88;;;18.03;100.00
16777;BME280;8505;49.456;8.164;2022-07-22T04:57:03;-20472.75;;;18.02;100.00
16777;BME280;8505;49.456;8.164;2022-07-22T04:59:30;-20473.81;;;18.06;100.00
16777;BME280;8505;49.456;8.164;2022-07-22T05:01:58;-20472.44;;;18.01;100.00
16777;BME280;8505;49.456;8.164;2022-07-22T05:04:26;-20469.84;;;17.93;100.00
16777;BME280;8505;49.456;8.164;2022-07-22T05:06:55;-20477.44;;;18.18;100.00
16777;BME280;8505;49.456;8.164;2022-07-22T05:09:23;-20481.72;;;18.32;100.00
16777;BME280;8505;49.456;8.164;2022-07-22T05:11:50;-20482.00;;;18.33;100.00
16777;BME280;8505;49.456;8.164;2022-07-22T05:14:18;-20488.69;;;18.56;100.00
16777;BME280;8505;49.456;8.164;2022-07-22T05:16:47;-20496.31;;;18.81;100.00
16777;BME280;8505;49.456;8.164;2022-07-22T05:19:14;-20503.91;;;19.06;100.00
16777;BME280;8505;49.456;8.164;2022-07-22T05:21:42;-20513.31;;;19.38;100.00
16777;BME280;8505;49.456;8.164;2022-07-22T05:24:11;-20523.66;;;19.72;100.00
16777;BME280;8505;49.456;8.164;2022-07-22T05:26:39;-20531.84;;;20.00;100.00
16777;BME280;8505;49.456;8.164;2022-07-22T05:29:07;-20549.28;;;20.58;100.00
16777;BME280;8505;49.456;8.164;2022-07-22T05:31:34;-20553.38;;;20.72;99.24
16777;BME280;8505;49.456;8.164;2022-07-22T05:34:02;-20561.13;;;20.98;98.07
16777;BME280;8505;49.456;8.164;2022-07-22T05:36:30;-20569.16;;;21.24;94.05
16777;BME280;8505;49.456;8.164;2022-07-22T05:38:58;-20570.06;;;21.27;92.23
16777;BME280;8505;49.456;8.164;2022-07-22T05:41:28;-20571.91;;;21.34;92.18
16777;BME280;8505;49.456;8.164;2022-07-22T05:43:55;-20571.59;;;21.33;91.27
16777;BME280;8505;49.456;8.164;2022-07-22T05:46:23;-20582.81;;;21.70;88.75
16777;BME280;8505;49.456;8.164;2022-07-22T05:48:53;-20592.97;;;22.04;87.11
16777;BME280;8505;49.456;8.164;2022-07-22T05:51:22;-20608.56;;;22.56;84.30
16777;BME280;8505;49.456;8.164;2022-07-22T05:53:49;-20600.38;;;22.29;86.02
16777;BME280;8505;49.456;8.164;2022-07-22T05:56:17;-20610.06;;;22.61;84.47
16777;BME280;8505;49.456;8.164;2022-07-22T05:58:46;-20618.41;;;22.89;81.56
16777;BME280;8505;49.456;8.164;2022-07-22T06:01:13;-20619.16;;;22.92;80.51
16777;BME280;8505;49.456;8.164;2022-07-22T06:03:41;-20621.28;;;22.99;79.75
16777;BME280;8505;49.456;8.164;2022-07-22T06:06:09;-20610.06;;;22.61;80.94
16777;BME280;8505;49.456;8.164;2022-07-22T06:08:36;-20601.59;;;22.33;81.21
16777;BME280;8505;49.456;8.164;2022-07-22T06:11:04;-20606.75;;;22.50;82.90
16777;BME280;8505;49.456;8.164;2022-07-22T06:13:32;-20618.84;;;22.91;78.91
16777;BME280;8505;49.456;8.164;2022-07-22T06:16:02;-20617.66;;;22.87;77.88
16777;BME280;8505;49.456;8.164;2022-07-22T06:18:29;-20620.97;;;22.98;78.20
16777;BME280;8505;49.456;8.164;2022-07-22T06:20:57;-20620.69;;;22.97;77.06
16777;BME280;8505;49.456;8.164;2022-07-22T06:23:25;-20624.47;;;23.09;76.23
16777;BME280;8505;49.456;8.164;2022-07-22T06:25:52;-20619.00;;;22.91;77.62
16777;BME280;8505;49.456;8.164;2022-07-22T06:28:20;-20623.09;;;23.05;74.82
16777;BME280;8505;49.456;8.164;2022-07-22T06:30:48;-20624.91;;;23.11;75.26
16777;BME280;8505;49.456;8.164;2022-07-22T06:33:17;-20605.06;;;22.45;79.00
16777;BME280;8505;49.456;8.164;2022-07-22T06:35:44;-20633.09;;;23.38;75.42
16777;BME280;8505;49.456;8.164;2022-07-22T06:38:12;-20619.47;;;22.93;75.40
16777;BME280;8505;49.456;8.164;2022-07-22T06:40:56;-20622.78;;;23.04;75.74
16777;BME280;8505;49.456;8.164;2022-07-22T06:43:26;-20622.94;;;23.04;75.62
16777;BME280;8505;49.456;8.164;2022-07-22T06:45:54;-20623.25;;;23.05;74.99
16777;BME280;8505;49.456;8.164;2022-07-22T06:48:23;-20636.25;;;23.49;73.59
16777;BME280;8505;49.456;8.164;2022-07-22T06:50:51;-20644.13;;;23.75;72.26
16777;BME280;8505;49.456;8.164;2022-07-22T06:53:19;-20641.56;;;23.67;70.94
16777;BME280;8505;49.456;8.164;2022-07-22T06:55:47;-20633.25;;;23.39;72.90
16777;BME280;8505;49.456;8.164;2022-07-22T06:58:14;-20618.84;;;22.91;74.49
16777;BME280;8505;49.456;8.164;2022-07-22T07:00:42;-20609.16;;;22.58;77.87
16777;BME280;8505;49.456;8.164;2022-07-22T07:03:10;-20629.75;;;23.27;76.05
16777;BME280;8505;49.456;8.164;2022-07-22T07:05:59;-20637.78;;;23.54;73.54
16777;BME280;8505;49.456;8.164;2022-07-22T07:08:27;-20627.34;;;23.19;76.54
16777;BME280;8505;49.456;8.164;2022-07-22T07:10:54;-20636.25;;;23.49;74.32
16777;BME280;8505;49.456;8.164;2022-07-22T07:13:22;-20624.47;;;23.09;74.16
16777;BME280;8505;49.456;8.164;2022-07-22T07:15:50;-20638.69;;;23.57;72.16
16777;BME280;8505;49.456;8.164;2022-07-22T07:18:17;-20647.91;;;23.88;72.00
16777;BME280;8505;49.456;8.164;2022-07-22T07:20:45;-20658.66;;;24.24;69.79
16777;BME280;8505;49.456;8.164;2022-07-22T07:23:14;-20668.78;;;24.58;66.94
16777;BME280;8505;49.456;8.164;2022-07-22T07:25:42;-20679.06;;;24.92;65.67
16777;BME280;8505;49.456;8.164;2022-07-22T07:28:10;-20693.41;;;25.41;62.55
16777;BME280;8505;49.456;8.164;2022-07-22T07:30:37;-20697.50;;;25.54;62.19
16777;BME280;8505;49.456;8.164;2022-07-22T07:33:05;-20699.59;;;25.61;61.09
16777;BME280;8505;49.456;8.164;2022-07-22T07:35:33;-20706.69;;;25.85;59.71
16777;BME280;8505;49.456;8.164;2022-07-22T07:38:01;-20706.25;;;25.84;58.95
16777;BME280;8505;49.456;8.164;2022-07-22T07:40:30;-20674.38;;;24.77;62.58
16777;BME280;8505;49.456;8.164;2022-07-22T07:42:58;-20688.13;;;25.23;60.58
16777;BME280;8505;49.456;8.164;2022-07-22T07:45:29;-20703.84;;;25.76;60.08
16777;BME280;8505;49.456;8.164;2022-07-22T07:47:57;-20710.47;;;25.98;58.32
16777;BME280;8505;49.456;8.164;2022-07-22T07:50:25;-20705.66;;;25.82;58.11
16777;BME280;8505;49.456;8.164;2022-07-22T07:52:53;-20712.59;;;26.05;58.04
16777;BME280;8505;49.456;8.164;2022-07-22T07:55:22;-20698.53;;;25.58;58.79
16777;BME280;8505;49.456;8.164;2022-07-22T07:57:51;-20698.25;;;25.57;59.35
16777;BME280;8505;49.456;8.164;2022-07-22T08:00:21;-20690.41;;;25.30;58.86
16777;BME280;8505;49.456;8.164;2022-07-22T08:02:50;-20702.03;;;25.70;58.59
16777;BME280;8505;49.456;8.164;2022-07-22T08:05:18;-20709.41;;;25.94;56.99
16777;BME280;8505;49.456;8.164;2022-07-22T08:07:49;-20692.97;;;25.39;57.90
16777;BME280;8505;49.456;8.164;2022-07-22T08:10:17;-20693.25;;;25.40;58.09
16777;BME280;8505;49.456;8.164;2022-07-22T08:13:07;-20700.53;;;25.64;57.33
16777;BME280;8505;49.456;8.164;2022-07-22T08:15:34;-20690.41;;;25.30;58.89
16777;BME280;8505;49.456;8.164;2022-07-22T08:18:03;-20716.22;;;26.17;56.36
16777;BME280;8505;49.456;8.164;2022-07-22T08:20:31;-20722.25;;;26.37;54.61
16777;BME280;8505;49.456;8.164;2022-07-22T08:23:02;-20715.31;;;26.14;56.58
16777;BME280;8505;49.456;8.164;2022-07-22T08:25:30;-20721.66;;;26.35;55.33
16777;BME280;8505;49.456;8.164;2022-07-22T08:27:58;-20695.06;;;25.46;59.20
16777;BME280;8505;49.456;8.164;2022-07-22T08:30:27;-20725.56;;;26.49;55.88
16777;BME280;8505;49.456;8.164;2022-07-22T08:32:56;-20747.28;;;27.22;53.48
16777;BME280;8505;49.456;8.164;2022-07-22T08:35:24;-20754.69;;;27.46;51.43
16777;BME280;8505;49.456;8.164;2022-07-22T08:37:52;-20740.97;;;27.00;52.37
16777;BME280;8505;49.456;8.164;2022-07-22T08:40:20;-20749.41;;;27.29;52.80
16777;BME280;8505;49.456;8.164;2022-07-22T08:42:48;-20750.59;;;27.33;51.86
16777;BME280;8505;49.456;8.164;2022-07-22T08:45:18;-20758.59;;;27.60;51.77
16777;BME280;8505;49.456;8.164;2022-07-22T08:47:49;-20748.19;;;27.25;51.92
16777;BME280;8505;49.456;8.164;2022-07-22T08:50:17;-20770.78;;;28.01;50.45
16777;BME280;8505;49.456;8.164;2022-07-22T08:52:47;-20761.16;;;27.68;51.09
16777;BME280;8505;49.456;8.164;2022-07-22T08:55:15;-20783.59;;;28.44;48.81
16777;BME280;8505;49.456;8.164;2022-07-22T08:57:44;-20771.25;;;28.02;49.86
16777;BME280;8505;49.456;8.164;2022-07-22T09:00:14;-20796.84;;;28.88;47.88
16777;BME280;8505;49.456;8.164;2022-07-22T09:02:42;-20778.94;;;28.28;49.30
16777;BME280;8505;49.456;8.164;2022-07-22T09:05:13;-20765.06;;;27.81;49.34
16777;BME280;8505;49.456;8.164;2022-07-22T09:08:01;-20782.25;;;28.39;48.17
16777;BME280;8505;49.456;8.164;2022-07-22T09:10:31;-20787.53;;;28.57;47.98
16777;BME280;8505;49.456;8.164;2022-07-22T09:13:02;-20797.91;;;28.92;46.80
16777;BME280;8505;49.456;8.164;2022-07-22T09:15:31;-20803.94;;;29.12;46.41
16777;BME280;8505;49.456;8.164;2022-07-22T09:18:00;-20788.28;;;28.60;47.82
16777;BME280;8505;49.456;8.164;2022-07-22T09:20:34;-20794.75;;;28.81;47.21
16777;BME280;8505;49.456;8.164;2022-07-22T09:23:09;-20803.63;;;29.11;46.86
16777;BME280;8505;49.456;8.164;2022-07-22T09:25:38;-20801.38;;;29.04;45.76
16777;BME280;8505;49.456;8.164;2022-07-22T09:28:12;-20803.03;;;29.09;46.58
16777;BME280;8505;49.456;8.164;2022-07-22T09:30:46;-20798.50;;;28.94;47.06
16777;BME280;8505;49.456;8.164;2022-07-22T09:33:17;-20790.38;;;28.67;47.66
16777;BME280;8505;49.456;8.164;2022-07-22T09:35:47;-20808.28;;;29.27;45.37
16777;BME280;8505;49.456;8.164;2022-07-22T09:38:18;-20820.78;;;29.69;44.40
16777;BME280;8505;49.456;8.164;2022-07-22T09:40:47;-20824.38;;;29.81;44.44
16777;BME280;8505;49.456;8.164;2022-07-22T09:43:16;-20810.69;;;29.35;45.39
16777;BME280;8505;49.456;8.164;2022-07-22T09:45:46;-20821.38;;;29.71;44.40
16777;BME280;8505;49.456;8.164;2022-07-22T09:48:17;-20857.75;;;30.94;42.55
16777;BME280;8505;49.456;8.164;2022-07-22T09:50:46;-20844.22;;;30.48;42.78
16777;BME280;8505;49.456;8.164;2022-07-22T09:53:16;-20820.19;;;29.67;44.12
16777;BME280;8505;49.456;8.164;2022-07-22T09:55:44;-20843.91;;;30.47;43.14
16777;BME280;8505;49.456;8.164;2022-07-22T09:58:11;-20840.00;;;30.34;42.64
16777;BME280;8505;49.456;8.164;2022-07-22T10:00:40;-20846.94;;;30.57;42.18
16777;BME280;8505;49.456;8.164;2022-07-22T10:03:11;-20852.94;;;30.78;42.51
16777;BME280;8505;49.456;8.164;2022-07-22T10:05:41;-20863.47;;;31.13;41.53
16777;BME280;8505;49.456;8.164;2022-07-22T10:08:10;-20847.22;;;30.58;42.28
16777;BME280;8505;49.456;8.164;2022-07-22T10:10:39;-20864.50;;;31.17;41.20
16777;BME280;8505;49.456;8.164;2022-07-22T10:13:07;-20868.72;;;31.31;41.14
16777;BME280;8505;49.456;8.164;2022-07-22T10:15:36;-20845.44;;;30.52;42.40
16777;BME280;8505;49.456;8.164;2022-07-22T10:18:06;-20856.09;;;30.88;41.91
16777;BME280;8505;49.456;8.164;2022-07-22T10:20:34;-20830.84;;;30.03;42.64
16777;BME280;8505;49.456;8.164;2022-07-22T10:23:04;-20837.16;;;30.24;42.61
16777;BME280;8505;49.456;8.164;2022-07-22T10:25:53;-20833.41;;;30.12;43.22
16777;BME280;8505;49.456;8.164;2022-07-22T10:28:24;-20842.72;;;30.43;42.96
16777;BME280;8505;49.456;8.164;2022-07-22T10:30:52;-20855.34;;;30.86;41.62
16777;BME280;8505;49.456;8.164;2022-07-22T10:33:21;-20866.75;;;31.24;41.78
16777;BME280;8505;49.456;8.164;2022-07-22T10:35:54;-20870.50;;;31.37;40.39
16777;BME280;8505;49.456;8.164;2022-07-22T10:38:23;-20861.97;;;31.08;41.02
16777;BME280;8505;49.456;8.164;2022-07-22T10:40:55;-20853.25;;;30.79;41.38
16777;BME280;8505;49.456;8.164;2022-07-22T10:43:24;-20861.34;;;31.06;41.46
16777;BME280;8505;49.456;8.164;2022-07-22T10:45:54;-20859.25;;;30.99;41.14
16777;BME280;8505;49.456;8.164;2022-07-22T10:48:25;-20872.91;;;31.45;40.99
16777;BME280;8505;49.456;8.164;2022-07-22T10:53:53;-20872.16;;;31.42;40.93
16777;BME280;8505;49.456;8.164;2022-07-22T10:56:25;-20888.97;;;31.99;38.96
16777;BME280;8505;49.456;8.164;2022-07-22T10:58:59;-20880.28;;;31.70;39.42
16777;BME280;8505;49.456;8.164;2022-07-22T11:01:30;-20889.56;;;32.01;39.44
16777;BME280;8505;49.456;8.164;2022-07-22T11:04:09;-20878.63;;;31.64;40.53
16777;BME280;8505;49.456;8.164;2022-07-22T11:06:44;-20875.63;;;31.54;40.32
16777;BME280;8505;49.456;8.164;2022-07-22T11:09:13;-20891.06;;;32.06;38.22
16777;BME280;8505;49.456;8.164;2022-07-22T11:11:45;-20890.47;;;32.04;38.96
16777;BME280;8505;49.456;8.164;2022-07-22T11:14:19;-20865.25;;;31.19;39.89
16777;BME280;8505;49.456;8.164;2022-07-22T11:16:49;-20889.72;;;32.02;39.06
16777;BME280;8505;49.456;8.164;2022-07-22T11:19:22;-20893.78;;;32.15;38.56
16777;BME280;8505;49.456;8.164;2022-07-22T11:21:52;-20900.66;;;32.39;39.05
16777;BME280;8505;49.456;8.164;2022-07-22T11:24:21;-20896.19;;;32.24;38.60
16777;BME280;8505;49.456;8.164;2022-07-22T11:26:51;-20891.66;;;32.08;39.57
16777;BME280;8505;49.456;8.164;2022-07-22T11:29:25;-20896.78;;;32.26;37.77
16777;BME280;8505;49.456;8.164;2022-07-22T11:31:53;-20919.41;;;33.02;37.48
16777;BME280;8505;49.456;8.164;2022-07-22T11:34:22;-20911.31;;;32.75;38.24
16777;BME280;8505;49.456;8.164;2022-07-22T11:36:51;-20899.31;;;32.34;37.68
16777;BME280;8505;49.456;8.164;2022-07-22T11:39:21;-20910.88;;;32.73;37.74
16777;BME280;8505;49.456;8.164;2022-07-22T11:41:51;-20901.56;;;32.42;37.57
16777;BME280;8505;49.456;8.164;2022-07-22T11:44:20;-20911.63;;;32.76;37.22
16777;BME280;8505;49.456;8.164;2022-07-22T11:46:48;-20894.81;;;32.19;36.93
16777;BME280;8505;49.456;8.164;2022-07-22T11:49:18;-20899.63;;;32.35;37.21
16777;BME280;8505;49.456;8.164;2022-07-22T11:51:46;-20901.41;;;32.41;37.33
16777;BME280;8505;49.456;8.164;2022-07-22T11:54:14;-20915.22;;;32.88;38.31
16777;BME280;8505;49.456;8.164;2022-07-22T11:56:42;-20902.16;;;32.44;37.95
16777;BME280;8505;49.456;8.164;2022-07-22T11:59:14;-20901.88;;;32.43;37.31
16777;BME280;8505;49.456;8.164;2022-07-22T12:01:42;-20935.28;;;33.56;36.02
16777;BME280;8505;49.456;8.164;2022-07-22T12:04:12;-20918.50;;;32.99;36.07
16777;BME280;8505;49.456;8.164;2022-07-22T12:06:42;-20901.41;;;32.41;37.02
16777;BME280;8505;49.456;8.164;2022-07-22T12:09:12;-20919.09;;;33.01;36.80
16777;BME280;8505;49.456;8.164;2022-07-22T12:11:41;-20907.88;;;32.63;36.21
16777;BME280;8505;49.456;8.164;2022-07-22T12:14:11;-20919.84;;;33.04;36.02
16777;BME280;8505;49.456;8.164;2022-07-22T12:16:45;-20892.88;;;32.12;37.74
16777;BME280;8505;49.456;8.164;2022-07-22T12:19:20;-20919.84;;;33.04;36.71
16777;BME280;8505;49.456;8.164;2022-07-22T12:21:52;-20922.84;;;33.14;35.35
16777;BME280;8505;49.456;8.164;2022-07-22T12:24:28;-20946.38;;;33.93;35.03
16777;BME280;8505;49.456;8.164;2022-07-22T12:26:58;-20945.75;;;33.91;34.33
16777;BME280;8505;49.456;8.164;2022-07-22T12:29:28;-20925.84;;;33.24;35.42
16777;BME280;8505;49.456;8.164;2022-07-22T12:32:00;-20933.34;;;33.49;35.09
16777;BME280;8505;49.456;8.164;2022-07-22T12:34:30;-20953.56;;;34.18;33.91
16777;BME280;8505;49.456;8.164;2022-07-22T12:36:59;-20958.94;;;34.36;33.93
16777;BME280;8505;49.456;8.164;2022-07-22T12:39:28;-20939.94;;;33.72;34.55
16777;BME280;8505;49.456;8.164;2022-07-22T12:41:56;-20949.06;;;34.03;35.25
16777;BME280;8505;49.456;8.164;2022-07-22T12:44:25;-20953.09;;;34.16;33.93
16777;BME280;8505;49.456;8.164;2022-07-22T12:47:01;-20972.69;;;34.83;33.06
16777;BME280;8505;49.456;8.164;2022-07-22T12:49:29;-20941.72;;;33.78;34.16
16777;BME280;8505;49.456;8.164;2022-07-22T12:52:10;-20963.88;;;34.53;33.00
16777;BME280;8505;49.456;8.164;2022-07-22T12:54:40;-20949.66;;;34.05;34.43
16777;BME280;8505;49.456;8.164;2022-07-22T12:57:08;-20947.88;;;33.98;34.17
16777;BME280;8505;49.456;8.164;2022-07-22T12:59:36;-20948.47;;;34.01;34.88
16777;BME280;8505;49.456;8.164;2022-07-22T13:02:06;-20953.41;;;34.17;33.83
16777;BME280;8505;49.456;8.164;2022-07-22T13:04:33;-20977.94;;;35.00;33.01
16777;BME280;8505;49.456;8.164;2022-07-22T13:07:01;-20953.09;;;34.16;33.56